15:00
Airports
History
Links
Donate
Help keep this website running!
PayPal
Bitcoin
This page is community maintained. The information is intended for PC simulator navigation or reference.
Always use approved charts for navigation.
CYUY
Rouyn-norandaUpdated 21-May-2014
Rouyn-noranda (CYUY)
Rouyn-Noranda, Québec, Canada
(U)
Lat/Lng:48° 12' 22" N / 78° 50' 8" W
48.206111 / -78.835556
Elevation:988'ft / 301mMSL
Declination:W013°
ID / ICAO:CYUY
Runways:1
Longest:(08-26) 2,269.2m / 7,445ft Asphalt
Distance To
Airport ID:
Airport Radio Frequencies
Tower: 122.2
Nearby VORs <50NM
Nearby NDBs
METARUpdated 08-19-17 14:16 GMT
Altimeter: 29.71
Visibility: 15.0 statute miles
Wind: 6 knots (300°)
Temp: 15°c 59°f
Humidity: 100.0%

METAR: CYUY 191416Z 30006KT 270V340 15SM -DZ BKN008 OVC013 15/15 A2971 RMK SF6ST2 -DZ INTMT SLP064 DENSITY ALT 1500FT

(Powered by phpweather)
Runway 08 / 26
Dimensions:2269.2 x 45.7m 7445' x 150'ft
Surface:Asphalt
Edge Lights:Medium intensity
Runway 08 [A]Runway 26 [B]
Heading:075°MH  062°TH255°MH   242°TH
Lat:
Lng:
48° 12' 3.77"N
78° 50' 55.91"W
48° 12' 38"N
78° 49' 17.99"W
ALS:ODALSODALS
User Notes and Comments
Google Map
Nearby Airports
(U) Amos/magny 36.5 NM
CYEY NE 47°
(U) VAL D OR 49.7 NM
CYVO (WX) ESE 102°
(U) La Sarre 51.6 NM
SR8 NNW 342°
(U) KIRKLAND LAKE 52.8 NM
CYKX W 270°
(U) TIMISKAMING RGNL 58.7 NM
CYXR (WX) SW 233°
(U) ST BRUNO DE GUIGUES 58.9 NM
CTA4 SSW 207°
(U) Iroquois Falls 97.0 NM
NE4 WNW 292°
VFR Chart
Flight Planning at SkyVector.com